sensor_id;sensor_type;location;lat;lon;timestamp;pressure;altitude;pressure_sealevel;temperature;humidity
79131;BME280;68530;45.194;9.142;2023-04-24T00:01:46;99793.56;;;16.99;61.20
79131;BME280;68530;45.194;9.142;2023-04-24T00:04:11;99793.94;;;16.70;61.87
79131;BME280;68530;45.194;9.142;2023-04-24T00:06:39;99791.44;;;16.80;61.42
79131;BME280;68530;45.194;9.142;2023-04-24T00:09:08;99788.94;;;16.90;60.68
79131;BME280;68530;45.194;9.142;2023-04-24T00:11:35;99780.94;;;17.14;60.71
79131;BME280;68530;45.194;9.142;2023-04-24T00:14:00;99784.94;;;17.20;60.16
79131;BME280;68530;45.194;9.142;2023-04-24T00:16:26;99771.75;;;16.94;60.88
79131;BME280;68530;45.194;9.142;2023-04-24T00:18:51;99772.91;;;17.03;60.69
79131;BME280;68530;45.194;9.142;2023-04-24T00:21:17;99770.63;;;17.10;60.58
79131;BME280;68530;45.194;9.142;2023-04-24T00:23:43;99771.59;;;17.09;60.61
79131;BME280;68530;45.194;9.142;2023-04-24T00:26:09;99769.19;;;17.17;60.50
79131;BME280;68530;45.194;9.142;2023-04-24T00:28:35;99766.03;;;17.12;60.35
79131;BME280;68530;45.194;9.142;2023-04-24T00:31:01;99775.59;;;16.90;61.01
79131;BME280;68530;45.194;9.142;2023-04-24T00:33:26;99775.69;;;17.01;61.15
79131;BME280;68530;45.194;9.142;2023-04-24T00:35:52;99774.53;;;17.17;60.39
79131;BME280;68530;45.194;9.142;2023-04-24T00:38:18;99767.00;;;17.11;60.63
79131;BME280;68530;45.194;9.142;2023-04-24T00:40:43;99767.13;;;16.85;61.29
79131;BME280;68530;45.194;9.142;2023-04-24T00:43:09;99756.72;;;16.93;61.29
79131;BME280;68530;45.194;9.142;2023-04-24T00:45:35;99754.97;;;16.81;61.66
79131;BME280;68530;45.194;9.142;2023-04-24T00:48:01;99761.28;;;16.80;62.06
79131;BME280;68530;45.194;9.142;2023-04-24T00:50:27;99753.09;;;16.94;61.35
79131;BME280;68530;45.194;9.142;2023-04-24T00:52:53;99751.34;;;17.06;61.03
79131;BME280;68530;45.194;9.142;2023-04-24T00:55:19;99738.81;;;16.84;61.48
79131;BME280;68530;45.194;9.142;2023-04-24T00:57:45;99732.81;;;16.69;61.86
79131;BME280;68530;45.194;9.142;2023-04-24T01:00:10;99742.22;;;16.97;61.23
79131;BME280;68530;45.194;9.142;2023-04-24T01:02:39;99742.22;;;16.97;61.05
79131;BME280;68530;45.194;9.142;2023-04-24T01:05:07;99732.59;;;17.08;60.60
79131;BME280;68530;45.194;9.142;2023-04-24T01:07:33;99748.09;;;17.02;60.20
79131;BME280;68530;45.194;9.142;2023-04-24T01:09:59;99748.09;;;17.14;59.79
79131;BME280;68530;45.194;9.142;2023-04-24T01:12:24;99752.84;;;17.10;59.58
79131;BME280;68530;45.194;9.142;2023-04-24T01:14:50;99749.06;;;17.13;59.52
79131;BME280;68530;45.194;9.142;2023-04-24T01:17:16;99746.66;;;17.10;60.04
79131;BME280;68530;45.194;9.142;2023-04-24T01:19:41;99754.28;;;17.14;60.33
79131;BME280;68530;45.194;9.142;2023-04-24T01:22:14;99747.28;;;17.13;60.41
79131;BME280;68530;45.194;9.142;2023-04-24T01:24:40;99745.97;;;17.19;60.63
79131;BME280;68530;45.194;9.142;2023-04-24T01:27:06;99739.00;;;17.05;61.02
79131;BME280;68530;45.194;9.142;2023-04-24T01:29:32;99739.38;;;17.12;61.14
79131;BME280;68530;45.194;9.142;2023-04-24T01:31:58;99730.28;;;16.67;63.44
79131;BME280;68530;45.194;9.142;2023-04-24T01:34:23;99725.28;;;16.38;64.72
79131;BME280;68530;45.194;9.142;2023-04-24T01:36:49;99735.13;;;16.73;64.27
79131;BME280;68530;45.194;9.142;2023-04-24T01:39:15;99730.97;;;16.94;63.51
79131;BME280;68530;45.194;9.142;2023-04-24T01:41:41;99730.13;;;16.69;64.81
79131;BME280;68530;45.194;9.142;2023-04-24T01:44:07;99721.31;;;16.68;64.54
79131;BME280;68530;45.194;9.142;2023-04-24T01:46:33;99723.63;;;16.73;64.38
79131;BME280;68530;45.194;9.142;2023-04-24T01:49:00;99725.28;;;16.62;64.39
79131;BME280;68530;45.194;9.142;2023-04-24T01:51:25;99735.13;;;16.73;64.63
79131;BME280;68530;45.194;9.142;2023-04-24T01:53:52;99731.88;;;16.81;64.40
79131;BME280;68530;45.194;9.142;2023-04-24T01:56:22;99733.53;;;16.71;64.54
79131;BME280;68530;45.194;9.142;2023-04-24T01:58:49;99736.91;;;16.61;65.27
79131;BME280;68530;45.194;9.142;2023-04-24T02:01:18;99734.50;;;16.70;64.55
79131;BME280;68530;45.194;9.142;2023-04-24T02:03:44;99732.94;;;16.67;64.45
79131;BME280;68530;45.194;9.142;2023-04-24T02:06:09;99723.22;;;16.66;64.94
79131;BME280;68530;45.194;9.142;2023-04-24T02:08:35;99719.63;;;16.67;64.75
79131;BME280;68530;45.194;9.142;2023-04-24T02:11:00;99724.47;;;16.73;64.45
79131;BME280;68530;45.194;9.142;2023-04-24T02:13:27;99714.47;;;16.53;64.91
79131;BME280;68530;45.194;9.142;2023-04-24T02:15:52;99716.66;;;16.59;64.80
79131;BME280;68530;45.194;9.142;2023-04-24T02:18:17;99721.16;;;16.58;64.74
79131;BME280;68530;45.194;9.142;2023-04-24T02:20:43;99720.06;;;16.61;64.22
79131;BME280;68530;45.194;9.142;2023-04-24T02:23:08;99714.25;;;16.56;64.60
79131;BME280;68530;45.194;9.142;2023-04-24T02:25:34;99718.59;;;16.57;64.65
79131;BME280;68530;45.194;9.142;2023-04-24T02:27:59;99706.38;;;16.54;64.35
79131;BME280;68530;45.194;9.142;2023-04-24T02:30:24;99707.31;;;16.53;64.74
79131;BME280;68530;45.194;9.142;2023-04-24T02:32:50;99704.16;;;16.48;64.98
79131;BME280;68530;45.194;9.142;2023-04-24T02:35:16;99709.50;;;16.48;64.93
79131;BME280;68530;45.194;9.142;2023-04-24T02:37:41;99714.69;;;16.50;64.83
79131;BME280;68530;45.194;9.142;2023-04-24T02:40:07;99718.44;;;16.47;65.02
79131;BME280;68530;45.194;9.142;2023-04-24T02:42:33;99715.88;;;16.45;64.87
79131;BME280;68530;45.194;9.142;2023-04-24T02:44:58;99725.22;;;16.51;64.73
79131;BME280;68530;45.194;9.142;2023-04-24T02:47:24;99721.19;;;16.45;64.75
79131;BME280;68530;45.194;9.142;2023-04-24T02:49:49;99718.44;;;16.47;64.95
79131;BME280;68530;45.194;9.142;2023-04-24T02:52:14;99718.28;;;16.37;65.12
79131;BME280;68530;45.194;9.142;2023-04-24T02:54:40;99721.94;;;16.47;66.11
79131;BME280;68530;45.194;9.142;2023-04-24T02:57:05;99711.03;;;16.39;66.01
79131;BME280;68530;45.194;9.142;2023-04-24T02:59:31;99720.78;;;16.52;66.01
79131;BME280;68530;45.194;9.142;2023-04-24T03:01:56;99718.22;;;16.50;65.67
79131;BME280;68530;45.194;9.142;2023-04-24T03:04:22;99708.44;;;16.51;65.47
79131;BME280;68530;45.194;9.142;2023-04-24T03:06:48;99714.81;;;16.48;65.41
79131;BME280;68530;45.194;9.142;2023-04-24T03:09:13;99711.81;;;16.53;65.45
79131;BME280;68530;45.194;9.142;2023-04-24T03:11:39;99707.31;;;16.53;65.81
79131;BME280;68530;45.194;9.142;2023-04-24T03:14:05;99701.38;;;16.50;65.82
79131;BME280;68530;45.194;9.142;2023-04-24T03:16:31;99701.31;;;16.62;66.10
79131;BME280;68530;45.194;9.142;2023-04-24T03:18:56;99694.88;;;16.54;65.83
79131;BME280;68530;45.194;9.142;2023-04-24T03:21:22;99696.69;;;16.53;65.71
79131;BME280;68530;45.194;9.142;2023-04-24T03:23:47;99696.25;;;16.59;65.31
79131;BME280;68530;45.194;9.142;2023-04-24T03:26:13;99682.88;;;16.48;65.68
79131;BME280;68530;45.194;9.142;2023-04-24T03:28:38;99695.38;;;16.59;65.76
79131;BME280;68530;45.194;9.142;2023-04-24T03:31:03;99690.06;;;16.59;65.69
79131;BME280;68530;45.194;9.142;2023-04-24T03:33:29;99699.75;;;16.60;65.67
79131;BME280;68530;45.194;9.142;2023-04-24T03:35:54;99696.09;;;16.61;65.79
79131;BME280;68530;45.194;9.142;2023-04-24T03:38:19;99691.50;;;16.63;65.49
79131;BME280;68530;45.194;9.142;2023-04-24T03:40:45;99700.03;;;16.68;65.44
79131;BME280;68530;45.194;9.142;2023-04-24T03:43:10;99697.47;;;16.67;65.62
79131;BME280;68530;45.194;9.142;2023-04-24T03:45:35;99698.78;;;16.61;65.89
79131;BME280;68530;45.194;9.142;2023-04-24T03:48:01;99697.31;;;16.57;65.53
79131;BME280;68530;45.194;9.142;2023-04-24T03:50:26;99699.97;;;16.57;65.86
79131;BME280;68530;45.194;9.142;2023-04-24T03:52:52;99702.69;;;16.68;65.87
79131;BME280;68530;45.194;9.142;2023-04-24T03:55:17;99703.41;;;16.70;65.15
79131;BME280;68530;45.194;9.142;2023-04-24T03:57:42;99700.22;;;16.65;65.18
79131;BME280;68530;45.194;9.142;2023-04-24T04:00:08;99702.53;;;16.58;65.67
79131;BME280;68530;45.194;9.142;2023-04-24T04:02:34;99703.69;;;16.54;66.17
79131;BME280;68530;45.194;9.142;2023-04-24T04:04:59;99704.09;;;16.61;65.78
79131;BME280;68530;45.194;9.142;2023-04-24T04:07:25;99695.63;;;16.56;65.95
79131;BME280;68530;45.194;9.142;2023-04-24T04:09:50;99700.22;;;16.54;66.13
79131;BME280;68530;45.194;9.142;2023-04-24T04:12:16;99694.00;;;16.42;66.44
79131;BME280;68530;45.194;9.142;2023-04-24T04:14:41;99699.56;;;16.50;66.06
79131;BME280;68530;45.194;9.142;2023-04-24T04:17:06;99700.88;;;16.44;66.38
79131;BME280;68530;45.194;9.142;2023-04-24T04:19:32;99696.28;;;16.46;66.17
79131;BME280;68530;45.194;9.142;2023-04-24T04:21:57;99699.19;;;16.43;66.35
79131;BME280;68530;45.194;9.142;2023-04-24T04:24:23;99697.03;;;16.48;66.62
79131;BME280;68530;45.194;9.142;2023-04-24T04:26:49;99687.66;;;16.31;66.34
79131;BME280;68530;45.194;9.142;2023-04-24T04:29:16;99698.78;;;16.37;66.40
79131;BME280;68530;45.194;9.142;2023-04-24T04:31:41;99706.94;;;16.22;66.77
79131;BME280;68530;45.194;9.142;2023-04-24T04:34:07;99712.38;;;16.21;66.68
79131;BME280;68530;45.194;9.142;2023-04-24T04:36:33;99715.03;;;16.21;66.69
79131;BME280;68530;45.194;9.142;2023-04-24T04:39:02;99708.84;;;16.20;66.54
79131;BME280;68530;45.194;9.142;2023-04-24T04:41:28;99705.38;;;16.19;66.19
79131;BME280;68530;45.194;9.142;2023-04-24T04:43:53;99710.69;;;16.19;66.13
79131;BME280;68530;45.194;9.142;2023-04-24T04:46:18;99713.34;;;16.19;66.67
79131;BME280;68530;45.194;9.142;2023-04-24T04:48:44;99719.88;;;16.02;66.68
79131;BME280;68530;45.194;9.142;2023-04-24T04:51:09;99719.78;;;16.04;66.74
79131;BME280;68530;45.194;9.142;2023-04-24T04:53:35;99724.13;;;16.05;67.00
79131;BME280;68530;45.194;9.142;2023-04-24T04:56:00;99714.28;;;15.94;66.92
79131;BME280;68530;45.194;9.142;2023-04-24T04:58:26;99725.00;;;15.93;67.06
79131;BME280;68530;45.194;9.142;2023-04-24T05:00:51;99733.84;;;15.93;67.03
79131;BME280;68530;45.194;9.142;2023-04-24T05:03:17;99726.94;;;15.90;66.95
79131;BME280;68530;45.194;9.142;2023-04-24T05:05:43;99714.25;;;15.81;66.65
79131;BME280;68530;45.194;9.142;2023-04-24T05:08:08;99723.19;;;15.80;67.25
79131;BME280;68530;45.194;9.142;2023-04-24T05:10:34;99732.66;;;15.84;67.27
79131;BME280;68530;45.194;9.142;2023-04-24T05:12:59;99733.50;;;15.85;67.05
79131;BME280;68530;45.194;9.142;2023-04-24T05:15:26;99727.75;;;15.78;66.97
79131;BME280;68530;45.194;9.142;2023-04-24T05:17:51;99734.72;;;15.68;67.30
79131;BME280;68530;45.194;9.142;2023-04-24T05:20:16;99745.84;;;15.73;67.34
79131;BME280;68530;45.194;9.142;2023-04-24T05:22:42;99759.03;;;15.87;66.96
79131;BME280;68530;45.194;9.142;2023-04-24T05:25:08;99762.66;;;15.86;66.86
79131;BME280;68530;45.194;9.142;2023-04-24T05:27:33;99762.31;;;15.78;67.06
79131;BME280;68530;45.194;9.142;2023-04-24T05:29:59;99760.41;;;15.80;66.83
79131;BME280;68530;45.194;9.142;2023-04-24T05:32:24;99758.94;;;15.76;66.92
79131;BME280;68530;45.194;9.142;2023-04-24T05:34:50;99760.09;;;15.72;67.33
79131;BME280;68530;45.194;9.142;2023-04-24T05:37:16;99764.47;;;15.73;66.95
79131;BME280;68530;45.194;9.142;2023-04-24T05:39:41;99765.94;;;15.77;66.92
79131;BME280;68530;45.194;9.142;2023-04-24T05:42:06;99772.84;;;15.67;67.54
79131;BME280;68530;45.194;9.142;2023-04-24T05:44:32;99782.44;;;15.69;67.31
79131;BME280;68530;45.194;9.142;2023-04-24T05:46:57;99777.34;;;15.53;68.08
79131;BME280;68530;45.194;9.142;2023-04-24T05:49:23;99783.91;;;15.60;68.10
79131;BME280;68530;45.194;9.142;2023-04-24T05:51:48;99770.28;;;15.78;66.80
79131;BME280;68530;45.194;9.142;2023-04-24T05:54:13;99779.34;;;15.88;66.71
79131;BME280;68530;45.194;9.142;2023-04-24T05:56:39;99775.53;;;15.93;66.56
79131;BME280;68530;45.194;9.142;2023-04-24T05:59:05;99777.00;;;16.10;65.34
79131;BME280;68530;45.194;9.142;2023-04-24T06:01:30;99766.69;;;16.05;65.49
79131;BME280;68530;45.194;9.142;2023-04-24T06:03:56;99777.81;;;16.10;65.38
79131;BME280;68530;45.194;9.142;2023-04-24T06:06:22;99791.31;;;16.20;65.22
79131;BME280;68530;45.194;9.142;2023-04-24T06:08:48;99798.16;;;16.11;65.24
79131;BME280;68530;45.194;9.142;2023-04-24T06:11:14;99799.84;;;16.12;65.31
79131;BME280;68530;45.194;9.142;2023-04-24T06:13:39;99804.38;;;16.23;65.57
79131;BME280;68530;45.194;9.142;2023-04-24T06:16:05;99804.50;;;16.22;65.17
79131;BME280;68530;45.194;9.142;2023-04-24T06:18:30;99795.75;;;16.32;64.60
79131;BME280;68530;45.194;9.142;2023-04-24T06:20:56;99763.03;;;16.19;64.96
79131;BME280;68530;45.194;9.142;2023-04-24T06:23:21;99790.69;;;16.16;65.39
79131;BME280;68530;45.194;9.142;2023-04-24T06:25:46;99780.38;;;16.12;64.52
79131;BME280;68530;45.194;9.142;2023-04-24T06:28:12;99799.19;;;16.22;65.03
79131;BME280;68530;45.194;9.142;2023-04-24T06:30:37;99793.97;;;16.20;63.90
79131;BME280;68530;45.194;9.142;2023-04-24T06:33:02;99786.31;;;16.28;65.05
79131;BME280;68530;45.194;9.142;2023-04-24T06:35:28;99789.88;;;16.40;64.70
79131;BME280;68530;45.194;9.142;2023-04-24T06:37:53;99787.13;;;16.29;65.34
79131;BME280;68530;45.194;9.142;2023-04-24T06:40:21;99794.25;;;16.41;64.79
79131;BME280;68530;45.194;9.142;2023-04-24T06:42:46;99802.22;;;16.41;64.73
79131;BME280;68530;45.194;9.142;2023-04-24T06:45:11;99804.22;;;16.51;64.39
79131;BME280;68530;45.194;9.142;2023-04-24T06:47:37;99806.66;;;16.54;64.23
79131;BME280;68530;45.194;9.142;2023-04-24T06:50:03;99805.56;;;16.56;63.93
79131;BME280;68530;45.194;9.142;2023-04-24T06:52:29;99809.19;;;16.55;64.34
79131;BME280;68530;45.194;9.142;2023-04-24T06:55:01;99809.25;;;16.67;64.25
79131;BME280;68530;45.194;9.142;2023-04-24T06:57:27;99807.91;;;16.61;64.30
79131;BME280;68530;45.194;9.142;2023-04-24T06:59:53;99817.59;;;16.62;64.50
79131;BME280;68530;45.194;9.142;2023-04-24T07:02:18;99833.84;;;16.70;64.59
79131;BME280;68530;45.194;9.142;2023-04-24T07:04:43;99821.59;;;16.68;64.03
79131;BME280;68530;45.194;9.142;2023-04-24T07:07:09;99817.75;;;16.72;64.21
79131;BME280;68530;45.194;9.142;2023-04-24T07:09:38;99813.63;;;16.68;64.27
79131;BME280;68530;45.194;9.142;2023-04-24T07:12:06;99814.75;;;16.76;64.05
79131;BME280;68530;45.194;9.142;2023-04-24T07:14:32;99815.97;;;16.72;64.72
79131;BME280;68530;45.194;9.142;2023-04-24T07:16:57;99824.94;;;16.83;64.70
79131;BME280;68530;45.194;9.142;2023-04-24T07:19:23;99822.81;;;16.88;64.88
79131;BME280;68530;45.194;9.142;2023-04-24T07:21:48;99824.50;;;16.89;64.13
79131;BME280;68530;45.194;9.142;2023-04-24T07:24:14;99822.09;;;16.97;64.29
79131;BME280;68530;45.194;9.142;2023-04-24T07:26:39;99830.34;;;16.94;64.85
79131;BME280;68530;45.194;9.142;2023-04-24T07:29:05;99826.72;;;16.95;64.33
79131;BME280;68530;45.194;9.142;2023-04-24T07:31:31;99829.34;;;17.08;63.79
79131;BME280;68530;45.194;9.142;2023-04-24T07:33:57;99830.25;;;17.20;63.24
79131;BME280;68530;45.194;9.142;2023-04-24T07:36:23;99831.22;;;17.19;62.91
79131;BME280;68530;45.194;9.142;2023-04-24T07:38:49;99827.34;;;17.23;62.94
79131;BME280;68530;45.194;9.142;2023-04-24T07:41:15;99817.75;;;17.21;62.57
79131;BME280;68530;45.194;9.142;2023-04-24T07:43:41;99818.13;;;17.27;63.22
79131;BME280;68530;45.194;9.142;2023-04-24T07:46:07;99816.94;;;17.31;63.31
79131;BME280;68530;45.194;9.142;2023-04-24T07:48:33;99807.25;;;17.30;62.90
79131;BME280;68530;45.194;9.142;2023-04-24T07:50:58;99816.97;;;17.43;62.51
79131;BME280;68530;45.194;9.142;2023-04-24T07:53:23;99815.50;;;17.39;62.35
79131;BME280;68530;45.194;9.142;2023-04-24T07:55:49;99816.34;;;17.39;62.64
79131;BME280;68530;45.194;9.142;2023-04-24T07:58:15;99807.38;;;17.40;61.98
79131;BME280;68530;45.194;9.142;2023-04-24T08:00:40;99817.44;;;17.37;61.83
79131;BME280;68530;45.194;9.142;2023-04-24T08:03:05;99811.41;;;17.35;61.49
79131;BME280;68530;45.194;9.142;2023-04-24T08:05:31;99809.69;;;17.33;61.25
79131;BME280;68530;45.194;9.142;2023-04-24T08:07:56;99816.72;;;17.46;60.76
79131;BME280;68530;45.194;9.142;2023-04-24T08:10:23;99806.59;;;17.51;60.13
79131;BME280;68530;45.194;9.142;2023-04-24T08:12:48;99814.44;;;17.53;60.23
79131;BME280;68530;45.194;9.142;2023-04-24T08:15:14;99815.91;;;17.57;59.76
79131;BME280;68530;45.194;9.142;2023-04-24T08:17:39;99821.03;;;17.60;59.65
79131;BME280;68530;45.194;9.142;2023-04-24T08:20:05;99821.22;;;17.57;60.10
79131;BME280;68530;45.194;9.142;2023-04-24T08:22:35;99826.47;;;17.58;59.61
79131;BME280;68530;45.194;9.142;2023-04-24T08:25:00;99825.25;;;17.63;59.36
79131;BME280;68530;45.194;9.142;2023-04-24T08:27:27;99829.59;;;17.64;59.14
79131;BME280;68530;45.194;9.142;2023-04-24T08:29:56;99831.31;;;17.65;58.62
79131;BME280;68530;45.194;9.142;2023-04-24T08:32:22;99834.47;;;17.70;57.90
79131;BME280;68530;45.194;9.142;2023-04-24T08:34:47;99831.69;;;17.71;57.75
79131;BME280;68530;45.194;9.142;2023-04-24T08:37:13;99825.63;;;17.69;57.40
79131;BME280;68530;45.194;9.142;2023-04-24T08:39:38;99822.72;;;17.72;57.63
79131;BME280;68530;45.194;9.142;2023-04-24T08:42:04;99827.94;;;17.74;57.68
79131;BME280;68530;45.194;9.142;2023-04-24T08:44:33;99824.19;;;17.77;56.78
79131;BME280;68530;45.194;9.142;2023-04-24T08:47:00;99830.97;;;17.81;56.69
79131;BME280;68530;45.194;9.142;2023-04-24T08:49:28;99827.97;;;17.85;56.27
79131;BME280;68530;45.194;9.142;2023-04-24T08:51:53;99836.94;;;17.84;55.96
79131;BME280;68530;45.194;9.142;2023-04-24T08:54:18;99831.34;;;17.76;56.04
79131;BME280;68530;45.194;9.142;2023-04-24T08:56:45;99830.38;;;17.88;56.34
79131;BME280;68530;45.194;9.142;2023-04-24T08:59:14;99814.72;;;17.84;56.47
79131;BME280;68530;45.194;9.142;2023-04-24T09:01:40;99833.06;;;18.00;56.56
79131;BME280;68530;45.194;9.142;2023-04-24T09:04:07;99823.72;;;17.94;55.42
79131;BME280;68530;45.194;9.142;2023-04-24T09:06:34;99833.78;;;17.90;54.43
79131;BME280;68530;45.194;9.142;2023-04-24T09:09:00;99834.50;;;17.93;55.00
79131;BME280;68530;45.194;9.142;2023-04-24T09:11:27;99846.50;;;17.98;55.30
79131;BME280;68530;45.194;9.142;2023-04-24T09:13:56;99839.88;;;18.04;55.65
79131;BME280;68530;45.194;9.142;2023-04-24T09:16:21;99836.50;;;18.02;54.73
79131;BME280;68530;45.194;9.142;2023-04-24T09:18:49;99834.03;;;18.10;54.71
79131;BME280;68530;45.194;9.142;2023-04-24T09:21:15;99829.44;;;18.12;53.94
79131;BME280;68530;45.194;9.142;2023-04-24T09:23:40;99832.00;;;18.14;53.73
79131;BME280;68530;45.194;9.142;2023-04-24T09:26:06;99831.13;;;18.13;53.92
79131;BME280;68530;45.194;9.142;2023-04-24T09:28:38;99844.47;;;18.25;53.93
79131;BME280;68530;45.194;9.142;2023-04-24T09:31:09;99840.22;;;18.34;53.35
79131;BME280;68530;45.194;9.142;2023-04-24T09:33:35;99820.94;;;18.30;54.33
79131;BME280;68530;45.194;9.142;2023-04-24T09:36:01;99820.19;;;18.28;53.95
79131;BME280;68530;45.194;9.142;2023-04-24T09:38:35;99809.53;;;18.28;53.90
79131;BME280;68530;45.194;9.142;2023-04-24T09:41:13;99815.00;;;18.15;51.68
79131;BME280;68530;45.194;9.142;2023-04-24T09:43:39;99821.69;;;18.21;52.37
79131;BME280;68530;45.194;9.142;2023-04-24T09:46:07;99823.59;;;18.30;53.12
79131;BME280;68530;45.194;9.142;2023-04-24T09:48:36;99806.50;;;18.32;53.26
79131;BME280;68530;45.194;9.142;2023-04-24T09:51:03;99816.31;;;18.43;53.18
79131;BME280;68530;45.194;9.142;2023-04-24T09:53:30;99810.59;;;18.48;52.57
79131;BME280;68530;45.194;9.142;2023-04-24T09:55:56;99814.59;;;18.42;52.45
79131;BME280;68530;45.194;9.142;2023-04-24T09:58:25;99814.34;;;18.45;52.47
79131;BME280;68530;45.194;9.142;2023-04-24T10:00:54;99817.75;;;18.48;51.94
79131;BME280;68530;45.194;9.142;2023-04-24T10:03:24;99820.41;;;18.59;51.98
79131;BME280;68530;45.194;9.142;2023-04-24T10:05:51;99825.13;;;18.67;50.96
79131;BME280;68530;45.194;9.142;2023-04-24T10:08:17;99803.06;;;18.53;51.74
79131;BME280;68530;45.194;9.142;2023-04-24T10:10:45;99819.16;;;18.63;51.91
79131;BME280;68530;45.194;9.142;2023-04-24T10:13:12;99825.72;;;18.70;50.50
79131;BME280;68530;45.194;9.142;2023-04-24T10:15:39;99824.13;;;18.68;51.03
79131;BME280;68530;45.194;9.142;2023-04-24T10:18:05;99822.56;;;18.65;51.01
79131;BME280;68530;45.194;9.142;2023-04-24T10:20:32;99825.22;;;18.65;50.49
79131;BME280;68530;45.194;9.142;2023-04-24T10:22:59;99817.72;;;18.70;50.55
79131;BME280;68530;45.194;9.142;2023-04-24T10:25:27;99811.03;;;18.65;50.01
79131;BME280;68530;45.194;9.142;2023-04-24T10:27:54;99810.16;;;18.75;50.37
79131;BME280;68530;45.194;9.142;2023-04-24T10:30:25;99815.38;;;18.77;51.29
79131;BME280;68530;45.194;9.142;2023-04-24T10:32:51;99800.91;;;18.80;49.28
79131;BME280;68530;45.194;9.142;2023-04-24T10:35:17;99803.34;;;18.83;50.32
79131;BME280;68530;45.194;9.142;2023-04-24T10:37:51;99810.06;;;18.98;49.63
79131;BME280;68530;45.194;9.142;2023-04-24T10:40:25;99818.44;;;19.05;49.52
79131;BME280;68530;45.194;9.142;2023-04-24T10:42:52;99809.72;;;19.03;49.63
79131;BME280;68530;45.194;9.142;2023-04-24T10:45:21;99811.28;;;19.06;49.53
79131;BME280;68530;45.194;9.142;2023-04-24T10:48:03;99809.06;;;19.11;48.59
79131;BME280;68530;45.194;9.142;2023-04-24T10:50:47;99808.38;;;18.97;48.41
79131;BME280;68530;45.194;9.142;2023-04-24T10:53:18;99812.59;;;19.11;48.69
79131;BME280;68530;45.194;9.142;2023-04-24T10:55:49;99813.13;;;19.26;46.77
79131;BME280;68530;45.194;9.142;2023-04-24T10:58:15;99811.59;;;19.24;47.06
79131;BME280;68530;45.194;9.142;2023-04-24T11:00:42;99799.31;;;19.21;47.86
79131;BME280;68530;45.194;9.142;2023-04-24T11:03:26;99808.72;;;19.37;48.31
79131;BME280;68530;45.194;9.142;2023-04-24T11:13:22;99801.28;;;19.40;48.06
79131;BME280;68530;45.194;9.142;2023-04-24T11:16:14;99787.59;;;19.34;46.19
79131;BME280;68530;45.194;9.142;2023-04-24T11:18:42;99800.03;;;19.23;46.75
79131;BME280;68530;45.194;9.142;2023-04-24T11:21:16;99789.78;;;19.28;47.84
79131;BME280;68530;45.194;9.142;2023-04-24T11:23:42;99783.34;;;19.31;47.50
79131;BME280;68530;45.194;9.142;2023-04-24T11:26:12;99777.84;;;19.54;46.88
79131;BME280;68530;45.194;9.142;2023-04-24T11:28:46;99777.59;;;19.57;46.98
79131;BME280;68530;45.194;9.142;2023-04-24T11:31:49;99770.09;;;19.51;47.31
79131;BME280;68530;45.194;9.142;2023-04-24T11:34:17;99776.09;;;19.43;47.59
79131;BME280;68530;45.194;9.142;2023-04-24T11:36:44;99777.53;;;19.47;47.99
79131;BME280;68530;45.194;9.142;2023-04-24T11:39:10;99775.88;;;19.56;48.55
79131;BME280;68530;45.194;9.142;2023-04-24T11:41:36;99766.16;;;19.55;48.31
79131;BME280;68530;45.194;9.142;2023-04-24T11:44:03;99760.97;;;19.53;48.36
79131;BME280;68530;45.194;9.142;2023-04-24T11:46:30;99756.50;;;19.64;47.23
79131;BME280;68530;45.194;9.142;2023-04-24T11:48:57;99756.66;;;19.62;47.56
79131;BME280;68530;45.194;9.142;2023-04-24T11:51:24;99754.28;;;19.69;46.99
79131;BME280;68530;45.194;9.142;2023-04-24T11:53:50;99744.69;;;19.66;46.22
79131;BME280;68530;45.194;9.142;2023-04-24T11:56:22;99749.66;;;19.71;46.79
79131;BME280;68530;45.194;9.142;2023-04-24T11:58:48;99739.66;;;19.73;46.33
79131;BME280;68530;45.194;9.142;2023-04-24T12:01:14;99746.69;;;19.74;45.35
79131;BME280;68530;45.194;9.142;2023-04-24T12:03:40;99734.59;;;19.70;46.02
79131;BME280;68530;45.194;9.142;2023-04-24T12:06:10;99733.19;;;19.76;45.16
79131;BME280;68530;45.194;9.142;2023-04-24T12:08:36;99727.97;;;19.74;45.45
79131;BME280;68530;45.194;9.142;2023-04-24T12:11:03;99733.06;;;19.77;46.14
79131;BME280;68530;45.194;9.142;2023-04-24T12:13:30;99732.44;;;19.95;45.26
79131;BME280;68530;45.194;9.142;2023-04-24T12:16:00;99720.56;;;19.87;46.24
79131;BME280;68530;45.194;9.142;2023-04-24T12:18:26;99729.00;;;19.83;46.31
79131;BME280;68530;45.194;9.142;2023-04-24T12:20:51;99720.53;;;19.78;46.63
79131;BME280;68530;45.194;9.142;2023-04-24T12:23:33;99731.28;;;19.87;45.79
79131;BME280;68530;45.194;9.142;2023-04-24T12:26:03;99722.38;;;19.87;46.94
79131;BME280;68530;45.194;9.142;2023-04-24T12:28:35;99728.25;;;20.02;44.91
79131;BME280;68530;45.194;9.142;2023-04-24T12:31:01;99712.19;;;20.02;44.33
79131;BME280;68530;45.194;9.142;2023-04-24T12:33:26;99721.03;;;19.93;45.52
79131;BME280;68530;45.194;9.142;2023-04-24T12:35:52;99711.03;;;19.95;42.44
79131;BME280;68530;45.194;9.142;2023-04-24T12:38:22;99705.41;;;19.98;41.22
79131;BME280;68530;45.194;9.142;2023-04-24T12:41:08;99711.34;;;20.01;42.39
79131;BME280;68530;45.194;9.142;2023-04-24T12:43:34;99708.25;;;20.06;43.35
79131;BME280;68530;45.194;9.142;2023-04-24T12:45:59;99701.94;;;20.17;42.10
79131;BME280;68530;45.194;9.142;2023-04-24T12:48:26;99699.13;;;20.19;43.36
79131;BME280;68530;45.194;9.142;2023-04-24T12:50:52;99693.91;;;20.17;43.53
79131;BME280;68530;45.194;9.142;2023-04-24T12:53:17;99700.25;;;20.26;41.91
79131;BME280;68530;45.194;9.142;2023-04-24T12:55:43;99683.06;;;20.19;41.19
79131;BME280;68530;45.194;9.142;2023-04-24T12:58:09;99691.38;;;20.15;42.43
79131;BME280;68530;45.194;9.142;2023-04-24T13:00:35;99683.59;;;20.22;43.66
79131;BME280;68530;45.194;9.142;2023-04-24T13:03:01;99680.41;;;20.28;42.44
79131;BME280;68530;45.194;9.142;2023-04-24T13:05:26;99679.00;;;20.44;41.49